sensor_id;sensor_type;location;lat;lon;timestamp;temperature;humidity
49489;SHT31;35382;51.484;11.476;2023-02-26T00:01:14;-0.86;85.63
49489;SHT31;35382;51.484;11.476;2023-02-26T00:02:55;-0.86;85.41
49489;SHT31;35382;51.484;11.476;2023-02-26T00:04:36;-0.88;85.17
49489;SHT31;35382;51.484;11.476;2023-02-26T00:06:20;-0.91;85.34
49489;SHT31;35382;51.484;11.476;2023-02-26T00:08:01;-0.97;86.05
49489;SHT31;35382;51.484;11.476;2023-02-26T00:09:45;-1.02;85.35
49489;SHT31;35382;51.484;11.476;2023-02-26T00:11:26;-1.02;85.30
49489;SHT31;35382;51.484;11.476;2023-02-26T00:13:10;-0.97;85.88
49489;SHT31;35382;51.484;11.476;2023-02-26T00:14:52;-0.96;86.17
49489;SHT31;35382;51.484;11.476;2023-02-26T00:16:34;-1.00;86.04
49489;SHT31;35382;51.484;11.476;2023-02-26T00:18:15;-1.03;86.35
49489;SHT31;35382;51.484;11.476;2023-02-26T00:19:57;-1.03;86.53
49489;SHT31;35382;51.484;11.476;2023-02-26T00:21:38;-1.02;86.49
49489;SHT31;35382;51.484;11.476;2023-02-26T00:23:20;-1.06;86.64
49489;SHT31;35382;51.484;11.476;2023-02-26T00:25:01;-1.07;86.59
49489;SHT31;35382;51.484;11.476;2023-02-26T00:26:42;-1.10;86.71
49489;SHT31;35382;51.484;11.476;2023-02-26T00:28:23;-1.07;87.11
49489;SHT31;35382;51.484;11.476;2023-02-26T00:30:06;-1.02;87.18
49489;SHT31;35382;51.484;11.476;2023-02-26T00:31:48;-0.96;86.65
49489;SHT31;35382;51.484;11.476;2023-02-26T00:33:29;-1.03;86.74
49489;SHT31;35382;51.484;11.476;2023-02-26T00:35:13;-1.06;86.85
49489;SHT31;35382;51.484;11.476;2023-02-26T00:37:19;-1.07;87.06
49489;SHT31;35382;51.484;11.476;2023-02-26T00:39:13;-1.06;87.47
49489;SHT31;35382;51.484;11.476;2023-02-26T00:40:55;-1.00;86.82
49489;SHT31;35382;51.484;11.476;2023-02-26T00:42:37;-1.05;87.19
49489;SHT31;35382;51.484;11.476;2023-02-26T00:44:20;-1.12;87.72
49489;SHT31;35382;51.484;11.476;2023-02-26T00:46:28;-1.07;87.77
49489;SHT31;35382;51.484;11.476;2023-02-26T00:50:24;-1.10;87.61
49489;SHT31;35382;51.484;11.476;2023-02-26T00:52:12;-1.10;87.49
49489;SHT31;35382;51.484;11.476;2023-02-26T00:54:14;-1.10;87.56
49489;SHT31;35382;51.484;11.476;2023-02-26T00:55:56;-1.13;87.59
49489;SHT31;35382;51.484;11.476;2023-02-26T00:57:37;-1.25;88.12
49489;SHT31;35382;51.484;11.476;2023-02-26T00:59:19;-1.26;88.06
49489;SHT31;35382;51.484;11.476;2023-02-26T01:01:00;-1.17;88.02
49489;SHT31;35382;51.484;11.476;2023-02-26T01:02:41;-1.16;88.10
49489;SHT31;35382;51.484;11.476;2023-02-26T01:04:23;-1.25;88.24
49489;SHT31;35382;51.484;11.476;2023-02-26T01:06:10;-1.20;88.51
49489;SHT31;35382;51.484;11.476;2023-02-26T01:09:41;-1.12;88.12
49489;SHT31;35382;51.484;11.476;2023-02-26T01:11:22;-1.13;88.53
49489;SHT31;35382;51.484;11.476;2023-02-26T01:13:03;-1.09;87.95
49489;SHT31;35382;51.484;11.476;2023-02-26T01:14:44;-1.10;88.44
49489;SHT31;35382;51.484;11.476;2023-02-26T01:16:29;-1.09;88.23
49489;SHT31;35382;51.484;11.476;2023-02-26T01:18:18;-1.09;88.16
49489;SHT31;35382;51.484;11.476;2023-02-26T01:20:10;-1.12;88.63
49489;SHT31;35382;51.484;11.476;2023-02-26T01:22:00;-1.05;88.50
49489;SHT31;35382;51.484;11.476;2023-02-26T01:23:44;-1.05;88.63
49489;SHT31;35382;51.484;11.476;2023-02-26T01:25:42;-1.05;88.41
49489;SHT31;35382;51.484;11.476;2023-02-26T01:27:23;-1.15;88.47
49489;SHT31;35382;51.484;11.476;2023-02-26T01:29:04;-1.16;88.81
49489;SHT31;35382;51.484;11.476;2023-02-26T01:30:46;-1.12;89.06
49489;SHT31;35382;51.484;11.476;2023-02-26T01:32:50;-1.19;89.68
49489;SHT31;35382;51.484;11.476;2023-02-26T01:34:40;-1.19;89.50
49489;SHT31;35382;51.484;11.476;2023-02-26T01:36:23;-1.23;89.82
49489;SHT31;35382;51.484;11.476;2023-02-26T01:38:17;-1.21;89.90
49489;SHT31;35382;51.484;11.476;2023-02-26T01:40:19;-1.23;89.62
49489;SHT31;35382;51.484;11.476;2023-02-26T01:42:14;-1.26;90.05
49489;SHT31;35382;51.484;11.476;2023-02-26T01:48:35;-1.23;89.93
49489;SHT31;35382;51.484;11.476;2023-02-26T01:50:22;-1.25;90.23
49489;SHT31;35382;51.484;11.476;2023-02-26T01:52:56;-1.30;90.27
49489;SHT31;35382;51.484;11.476;2023-02-26T01:54:08;-1.29;90.47
49489;SHT31;35382;51.484;11.476;2023-02-26T01:56:00;-1.19;89.90
49489;SHT31;35382;51.484;11.476;2023-02-26T01:57:42;-1.17;89.52
49489;SHT31;35382;51.484;11.476;2023-02-26T01:59:24;-1.23;89.52
49489;SHT31;35382;51.484;11.476;2023-02-26T02:01:05;-1.23;89.77
49489;SHT31;35382;51.484;11.476;2023-02-26T02:02:46;-1.27;89.77
49489;SHT31;35382;51.484;11.476;2023-02-26T02:04:29;-1.30;90.22
49489;SHT31;35382;51.484;11.476;2023-02-26T02:06:20;-1.36;90.37
49489;SHT31;35382;51.484;11.476;2023-02-26T02:08:01;-1.36;91.31
49489;SHT31;35382;51.484;11.476;2023-02-26T02:09:43;-1.40;92.09
49489;SHT31;35382;51.484;11.476;2023-02-26T02:11:24;-1.40;92.04
49489;SHT31;35382;51.484;11.476;2023-02-26T02:17:02;-1.38;92.24
49489;SHT31;35382;51.484;11.476;2023-02-26T02:23:35;-1.43;92.32
49489;SHT31;35382;51.484;11.476;2023-02-26T02:27:52;-1.54;92.30
49489;SHT31;35382;51.484;11.476;2023-02-26T02:30:00;-1.53;92.12
49489;SHT31;35382;51.484;11.476;2023-02-26T02:31:49;-1.56;92.07
49489;SHT31;35382;51.484;11.476;2023-02-26T02:35:44;-1.59;91.83
49489;SHT31;35382;51.484;11.476;2023-02-26T02:37:33;-1.60;91.61
49489;SHT31;35382;51.484;11.476;2023-02-26T02:39:29;-1.56;92.11
49489;SHT31;35382;51.484;11.476;2023-02-26T02:41:17;-1.51;92.09
49489;SHT31;35382;51.484;11.476;2023-02-26T02:43:05;-1.54;91.95
49489;SHT31;35382;51.484;11.476;2023-02-26T02:44:52;-1.53;91.52
49489;SHT31;35382;51.484;11.476;2023-02-26T02:46:38;-1.54;91.71
49489;SHT31;35382;51.484;11.476;2023-02-26T02:48:23;-1.57;91.89
49489;SHT31;35382;51.484;11.476;2023-02-26T02:50:27;-1.57;91.72
49489;SHT31;35382;51.484;11.476;2023-02-26T02:52:16;-1.66;91.77
49489;SHT31;35382;51.484;11.476;2023-02-26T02:54:07;-1.62;91.92
49489;SHT31;35382;51.484;11.476;2023-02-26T02:55:58;-1.62;92.07
49489;SHT31;35382;51.484;11.476;2023-02-26T02:57:47;-1.53;91.67
49489;SHT31;35382;51.484;11.476;2023-02-26T02:59:41;-1.54;91.63
49489;SHT31;35382;51.484;11.476;2023-02-26T03:01:25;-1.51;91.81
49489;SHT31;35382;51.484;11.476;2023-02-26T03:03:15;-1.54;91.58
49489;SHT31;35382;51.484;11.476;2023-02-26T03:04:57;-1.60;91.45
49489;SHT31;35382;51.484;11.476;2023-02-26T03:06:38;-1.57;91.85
49489;SHT31;35382;51.484;11.476;2023-02-26T03:08:23;-1.63;92.00
49489;SHT31;35382;51.484;11.476;2023-02-26T03:10:06;-1.57;91.88
49489;SHT31;35382;51.484;11.476;2023-02-26T03:11:48;-1.56;91.81
49489;SHT31;35382;51.484;11.476;2023-02-26T03:13:29;-1.63;91.65
49489;SHT31;35382;51.484;11.476;2023-02-26T03:15:25;-1.63;91.73
49489;SHT31;35382;51.484;11.476;2023-02-26T03:17:37;-1.63;91.58
49489;SHT31;35382;51.484;11.476;2023-02-26T03:19:30;-1.51;91.21
49489;SHT31;35382;51.484;11.476;2023-02-26T03:21:34;-1.54;91.28
49489;SHT31;35382;51.484;11.476;2023-02-26T03:23:23;-1.59;91.26
49489;SHT31;35382;51.484;11.476;2023-02-26T03:25:12;-1.57;91.65
49489;SHT31;35382;51.484;11.476;2023-02-26T03:26:58;-1.56;91.05
49489;SHT31;35382;51.484;11.476;2023-02-26T03:28:54;-1.54;91.12
49489;SHT31;35382;51.484;11.476;2023-02-26T03:31:16;-1.63;91.42
49489;SHT31;35382;51.484;11.476;2023-02-26T03:33:14;-1.57;91.31
49489;SHT31;35382;51.484;11.476;2023-02-26T03:36:47;-1.56;91.36
49489;SHT31;35382;51.484;11.476;2023-02-26T03:38:58;-1.54;91.33
49489;SHT31;35382;51.484;11.476;2023-02-26T03:40:52;-1.62;91.25
49489;SHT31;35382;51.484;11.476;2023-02-26T03:42:44;-1.53;91.28
49489;SHT31;35382;51.484;11.476;2023-02-26T03:44:31;-1.59;91.71
49489;SHT31;35382;51.484;11.476;2023-02-26T03:46:17;-1.57;91.68
49489;SHT31;35382;51.484;11.476;2023-02-26T03:48:00;-1.56;91.35
49489;SHT31;35382;51.484;11.476;2023-02-26T03:49:52;-1.56;91.43
49489;SHT31;35382;51.484;11.476;2023-02-26T03:51:36;-1.62;91.27
49489;SHT31;35382;51.484;11.476;2023-02-26T03:53:55;-1.56;90.99
49489;SHT31;35382;51.484;11.476;2023-02-26T03:55:48;-1.63;90.71
49489;SHT31;35382;51.484;11.476;2023-02-26T03:58:01;-1.62;91.10
49489;SHT31;35382;51.484;11.476;2023-02-26T03:59:53;-1.67;91.31
49489;SHT31;35382;51.484;11.476;2023-02-26T04:02:09;-1.64;90.49
49489;SHT31;35382;51.484;11.476;2023-02-26T04:03:58;-1.62;90.37
49489;SHT31;35382;51.484;11.476;2023-02-26T04:05:45;-1.63;90.40
49489;SHT31;35382;51.484;11.476;2023-02-26T04:07:27;-1.63;90.58
49489;SHT31;35382;51.484;11.476;2023-02-26T04:09:09;-1.60;90.20
49489;SHT31;35382;51.484;11.476;2023-02-26T04:12:37;-1.63;90.10
49489;SHT31;35382;51.484;11.476;2023-02-26T04:14:21;-1.57;90.02
49489;SHT31;35382;51.484;11.476;2023-02-26T04:16:02;-1.73;89.85
49489;SHT31;35382;51.484;11.476;2023-02-26T04:17:43;-1.71;90.04
49489;SHT31;35382;51.484;11.476;2023-02-26T04:19:24;-1.77;90.03
49489;SHT31;35382;51.484;11.476;2023-02-26T04:21:15;-1.74;90.06
49489;SHT31;35382;51.484;11.476;2023-02-26T04:22:57;-1.75;89.90
49489;SHT31;35382;51.484;11.476;2023-02-26T04:24:38;-1.83;89.88
49489;SHT31;35382;51.484;11.476;2023-02-26T04:26:19;-1.80;89.82
49489;SHT31;35382;51.484;11.476;2023-02-26T04:28:00;-1.90;89.75
49489;SHT31;35382;51.484;11.476;2023-02-26T04:29:41;-2.02;90.06
49489;SHT31;35382;51.484;11.476;2023-02-26T04:31:22;-1.99;89.95
49489;SHT31;35382;51.484;11.476;2023-02-26T04:33:03;-1.91;89.76
49489;SHT31;35382;51.484;11.476;2023-02-26T04:34:44;-2.04;89.64
49489;SHT31;35382;51.484;11.476;2023-02-26T04:36:25;-1.97;89.40
49489;SHT31;35382;51.484;11.476;2023-02-26T04:38:06;-2.04;89.68
49489;SHT31;35382;51.484;11.476;2023-02-26T04:39:48;-1.99;89.71
49489;SHT31;35382;51.484;11.476;2023-02-26T04:41:29;-2.11;89.40
49489;SHT31;35382;51.484;11.476;2023-02-26T04:43:09;-2.14;89.47
49489;SHT31;35382;51.484;11.476;2023-02-26T04:44:58;-2.22;89.60
49489;SHT31;35382;51.484;11.476;2023-02-26T04:46:40;-2.21;89.83
49489;SHT31;35382;51.484;11.476;2023-02-26T04:48:21;-2.15;89.86
49489;SHT31;35382;51.484;11.476;2023-02-26T04:50:03;-2.11;89.78
49489;SHT31;35382;51.484;11.476;2023-02-26T04:51:45;-2.04;89.36
49489;SHT31;35382;51.484;11.476;2023-02-26T04:53:28;-2.08;89.57
49489;SHT31;35382;51.484;11.476;2023-02-26T04:55:10;-2.11;89.73
49489;SHT31;35382;51.484;11.476;2023-02-26T04:56:52;-2.08;89.86
49489;SHT31;35382;51.484;11.476;2023-02-26T04:58:33;-1.98;90.11
49489;SHT31;35382;51.484;11.476;2023-02-26T05:00:20;-1.91;89.51
49489;SHT31;35382;51.484;11.476;2023-02-26T05:02:01;-1.95;89.82
49489;SHT31;35382;51.484;11.476;2023-02-26T05:03:43;-1.87;89.53
49489;SHT31;35382;51.484;11.476;2023-02-26T05:05:24;-1.87;89.56
49489;SHT31;35382;51.484;11.476;2023-02-26T05:07:07;-1.88;89.17
49489;SHT31;35382;51.484;11.476;2023-02-26T05:08:48;-1.80;89.36
49489;SHT31;35382;51.484;11.476;2023-02-26T05:10:29;-1.81;89.58
49489;SHT31;35382;51.484;11.476;2023-02-26T05:12:10;-1.75;89.49
49489;SHT31;35382;51.484;11.476;2023-02-26T05:13:51;-1.81;89.30
49489;SHT31;35382;51.484;11.476;2023-02-26T05:15:32;-1.74;89.23
49489;SHT31;35382;51.484;11.476;2023-02-26T05:17:15;-1.70;89.27
49489;SHT31;35382;51.484;11.476;2023-02-26T05:18:57;-1.67;89.29
49489;SHT31;35382;51.484;11.476;2023-02-26T05:20:38;-1.71;89.17
49489;SHT31;35382;51.484;11.476;2023-02-26T05:22:19;-1.71;89.25
49489;SHT31;35382;51.484;11.476;2023-02-26T05:24:00;-1.70;89.25
49489;SHT31;35382;51.484;11.476;2023-02-26T05:25:41;-1.71;89.50
49489;SHT31;35382;51.484;11.476;2023-02-26T05:27:22;-1.77;89.37
49489;SHT31;35382;51.484;11.476;2023-02-26T05:29:04;-1.78;89.53
49489;SHT31;35382;51.484;11.476;2023-02-26T05:30:47;-1.80;89.49
49489;SHT31;35382;51.484;11.476;2023-02-26T05:32:28;-1.81;89.81
49489;SHT31;35382;51.484;11.476;2023-02-26T05:34:10;-1.84;89.72
49489;SHT31;35382;51.484;11.476;2023-02-26T05:35:51;-1.80;89.36
49489;SHT31;35382;51.484;11.476;2023-02-26T05:37:32;-1.78;89.10
49489;SHT31;35382;51.484;11.476;2023-02-26T05:39:13;-1.73;88.50
49489;SHT31;35382;51.484;11.476;2023-02-26T05:40:57;-1.78;88.75
49489;SHT31;35382;51.484;11.476;2023-02-26T05:42:38;-1.75;88.61
49489;SHT31;35382;51.484;11.476;2023-02-26T05:44:20;-1.75;88.86
49489;SHT31;35382;51.484;11.476;2023-02-26T05:46:01;-1.68;88.16
49489;SHT31;35382;51.484;11.476;2023-02-26T05:47:42;-1.70;88.53
49489;SHT31;35382;51.484;11.476;2023-02-26T05:49:23;-1.75;88.64
49489;SHT31;35382;51.484;11.476;2023-02-26T05:51:04;-1.78;88.59
49489;SHT31;35382;51.484;11.476;2023-02-26T05:52:45;-1.68;88.58
49489;SHT31;35382;51.484;11.476;2023-02-26T05:54:26;-1.67;88.34
49489;SHT31;35382;51.484;11.476;2023-02-26T05:56:07;-1.62;88.25
49489;SHT31;35382;51.484;11.476;2023-02-26T05:57:48;-1.62;88.48
49489;SHT31;35382;51.484;11.476;2023-02-26T05:59:29;-1.59;88.53
49489;SHT31;35382;51.484;11.476;2023-02-26T06:01:10;-1.70;88.71
49489;SHT31;35382;51.484;11.476;2023-02-26T06:02:51;-1.64;88.59
49489;SHT31;35382;51.484;11.476;2023-02-26T06:04:32;-1.70;88.95
49489;SHT31;35382;51.484;11.476;2023-02-26T06:06:13;-1.73;88.92
49489;SHT31;35382;51.484;11.476;2023-02-26T06:07:57;-1.64;89.07
49489;SHT31;35382;51.484;11.476;2023-02-26T06:09:38;-1.63;89.15
49489;SHT31;35382;51.484;11.476;2023-02-26T06:11:19;-1.59;88.60
49489;SHT31;35382;51.484;11.476;2023-02-26T06:13:00;-1.64;88.81
49489;SHT31;35382;51.484;11.476;2023-02-26T06:14:41;-1.67;88.89
49489;SHT31;35382;51.484;11.476;2023-02-26T06:16:22;-1.59;88.88
49489;SHT31;35382;51.484;11.476;2023-02-26T06:18:03;-1.62;88.86
49489;SHT31;35382;51.484;11.476;2023-02-26T06:19:44;-1.64;89.12
49489;SHT31;35382;51.484;11.476;2023-02-26T06:21:25;-1.60;89.02
49489;SHT31;35382;51.484;11.476;2023-02-26T06:23:06;-1.54;88.78
49489;SHT31;35382;51.484;11.476;2023-02-26T06:24:47;-1.57;88.92
49489;SHT31;35382;51.484;11.476;2023-02-26T06:26:28;-1.59;88.69
49489;SHT31;35382;51.484;11.476;2023-02-26T06:28:09;-1.50;88.52
49489;SHT31;35382;51.484;11.476;2023-02-26T06:29:50;-1.54;88.67
49489;SHT31;35382;51.484;11.476;2023-02-26T06:31:31;-1.43;88.23
49489;SHT31;35382;51.484;11.476;2023-02-26T06:33:12;-1.27;87.89
49489;SHT31;35382;51.484;11.476;2023-02-26T06:34:53;-1.23;87.37
49489;SHT31;35382;51.484;11.476;2023-02-26T06:36:34;-1.26;87.19
49489;SHT31;35382;51.484;11.476;2023-02-26T06:38:15;-1.27;87.26
49489;SHT31;35382;51.484;11.476;2023-02-26T06:39:56;-1.38;87.25
49489;SHT31;35382;51.484;11.476;2023-02-26T06:41:37;-1.38;87.24
49489;SHT31;35382;51.484;11.476;2023-02-26T06:43:18;-1.38;87.05
49489;SHT31;35382;51.484;11.476;2023-02-26T06:44:59;-1.36;86.94
49489;SHT31;35382;51.484;11.476;2023-02-26T06:46:40;-1.35;86.65
49489;SHT31;35382;51.484;11.476;2023-02-26T06:48:21;-1.50;86.90
49489;SHT31;35382;51.484;11.476;2023-02-26T06:50:02;-1.42;86.79
49489;SHT31;35382;51.484;11.476;2023-02-26T06:51:43;-1.42;86.80
49489;SHT31;35382;51.484;11.476;2023-02-26T06:53:24;-1.36;86.59
49489;SHT31;35382;51.484;11.476;2023-02-26T06:55:06;-1.26;85.74
49489;SHT31;35382;51.484;11.476;2023-02-26T06:56:47;-1.38;86.09
49489;SHT31;35382;51.484;11.476;2023-02-26T06:58:28;-1.33;86.33
49489;SHT31;35382;51.484;11.476;2023-02-26T07:00:09;-1.21;86.04
49489;SHT31;35382;51.484;11.476;2023-02-26T07:01:51;-1.20;85.38
49489;SHT31;35382;51.484;11.476;2023-02-26T07:03:32;-1.20;85.33
49489;SHT31;35382;51.484;11.476;2023-02-26T07:05:13;-1.12;85.27
49489;SHT31;35382;51.484;11.476;2023-02-26T07:06:54;-1.12;85.63
49489;SHT31;35382;51.484;11.476;2023-02-26T07:08:35;-1.16;85.36
49489;SHT31;35382;51.484;11.476;2023-02-26T07:10:16;-1.09;85.02
49489;SHT31;35382;51.484;11.476;2023-02-26T07:11:58;-1.13;85.22
49489;SHT31;35382;51.484;11.476;2023-02-26T07:13:39;-1.03;85.37
49489;SHT31;35382;51.484;11.476;2023-02-26T07:15:20;-0.95;85.02
49489;SHT31;35382;51.484;11.476;2023-02-26T07:17:01;-1.00;84.47
49489;SHT31;35382;51.484;11.476;2023-02-26T07:18:42;-0.96;84.25
49489;SHT31;35382;51.484;11.476;2023-02-26T07:20:23;-0.92;84.32
49489;SHT31;35382;51.484;11.476;2023-02-26T07:22:04;-0.76;84.22
49489;SHT31;35382;51.484;11.476;2023-02-26T07:23:45;-0.75;83.97
49489;SHT31;35382;51.484;11.476;2023-02-26T07:25:26;-0.71;83.47
49489;SHT31;35382;51.484;11.476;2023-02-26T07:27:08;-0.61;83.50
49489;SHT31;35382;51.484;11.476;2023-02-26T07:28:50;-0.58;83.39
49489;SHT31;35382;51.484;11.476;2023-02-26T07:30:31;-0.55;82.65
49489;SHT31;35382;51.484;11.476;2023-02-26T07:32:12;-0.45;83.14
49489;SHT31;35382;51.484;11.476;2023-02-26T07:33:53;-0.51;83.18
49489;SHT31;35382;51.484;11.476;2023-02-26T07:35:34;-0.44;83.05
49489;SHT31;35382;51.484;11.476;2023-02-26T07:37:16;-0.52;82.62
49489;SHT31;35382;51.484;11.476;2023-02-26T07:38:57;-0.51;83.17
49489;SHT31;35382;51.484;11.476;2023-02-26T07:40:38;-0.52;82.90
49489;SHT31;35382;51.484;11.476;2023-02-26T07:42:19;-0.37;82.71
49489;SHT31;35382;51.484;11.476;2023-02-26T07:44:02;-0.37;82.14
49489;SHT31;35382;51.484;11.476;2023-02-26T07:45:44;-0.42;81.94
49489;SHT31;35382;51.484;11.476;2023-02-26T07:47:25;-0.32;82.23
49489;SHT31;35382;51.484;11.476;2023-02-26T07:49:06;-0.29;82.12
49489;SHT31;35382;51.484;11.476;2023-02-26T07:50:50;-0.31;81.94
49489;SHT31;35382;51.484;11.476;2023-02-26T07:52:32;-0.17;82.49
49489;SHT31;35382;51.484;11.476;2023-02-26T07:54:14;-0.19;81.84
49489;SHT31;35382;51.484;11.476;2023-02-26T07:55:54;-0.22;81.74
49489;SHT31;35382;51.484;11.476;2023-02-26T07:57:35;-0.24;81.99
49489;SHT31;35382;51.484;11.476;2023-02-26T07:59:16;-0.29;81.92
49489;SHT31;35382;51.484;11.476;2023-02-26T08:00:57;-0.42;82.53
49489;SHT31;35382;51.484;11.476;2023-02-26T08:02:39;-0.32;82.46
49489;SHT31;35382;51.484;11.476;2023-02-26T08:04:20;-0.34;82.48
49489;SHT31;35382;51.484;11.476;2023-02-26T08:06:01;-0.34;82.29
49489;SHT31;35382;51.484;11.476;2023-02-26T08:07:42;-0.21;82.22
49489;SHT31;35382;51.484;11.476;2023-02-26T08:09:23;-0.21;81.78
49489;SHT31;35382;51.484;11.476;2023-02-26T08:11:05;-0.19;81.80
49489;SHT31;35382;51.484;11.476;2023-02-26T08:12:46;-0.21;82.01
49489;SHT31;35382;51.484;11.476;2023-02-26T08:14:27;-0.13;82.12
49489;SHT31;35382;51.484;11.476;2023-02-26T08:16:08;-0.17;81.87
49489;SHT31;35382;51.484;11.476;2023-02-26T08:17:51;-0.14;81.73
49489;SHT31;35382;51.484;11.476;2023-02-26T08:19:32;-0.10;81.58
49489;SHT31;35382;51.484;11.476;2023-02-26T08:21:13;-0.17;81.86
49489;SHT31;35382;51.484;11.476;2023-02-26T08:22:54;-0.05;81.40
49489;SHT31;35382;51.484;11.476;2023-02-26T08:24:35;-0.03;81.06
49489;SHT31;35382;51.484;11.476;2023-02-26T08:26:15;0.02;81.39
49489;SHT31;35382;51.484;11.476;2023-02-26T08:27:56;0.02;81.33
49489;SHT31;35382;51.484;11.476;2023-02-26T08:29:39;0.03;80.70
49489;SHT31;35382;51.484;11.476;2023-02-26T08:31:20;0.05;80.84
49489;SHT31;35382;51.484;11.476;2023-02-26T08:33:01;0.21;80.54
49489;SHT31;35382;51.484;11.476;2023-02-26T08:34:42;0.26;80.19
49489;SHT31;35382;51.484;11.476;2023-02-26T08:36:23;0.33;79.71
49489;SHT31;35382;51.484;11.476;2023-02-26T08:38:05;0.30;78.94
49489;SHT31;35382;51.484;11.476;2023-02-26T08:39:45;0.64;79.22
49489;SHT31;35382;51.484;11.476;2023-02-26T08:41:28;0.81;79.25
49489;SHT31;35382;51.484;11.476;2023-02-26T08:43:11;0.83;78.39
49489;SHT31;35382;51.484;11.476;2023-02-26T08:44:52;0.65;77.88
49489;SHT31;35382;51.484;11.476;2023-02-26T08:46:34;0.60;77.64
49489;SHT31;35382;51.484;11.476;2023-02-26T08:48:14;0.23;78.30
49489;SHT31;35382;51.484;11.476;2023-02-26T08:49:55;0.37;78.26
49489;SHT31;35382;51.484;11.476;2023-02-26T08:51:39;0.68;78.23
49489;SHT31;35382;51.484;11.476;2023-02-26T08:53:20;0.67;77.40
49489;SHT31;35382;51.484;11.476;2023-02-26T08:55:02;0.73;77.11
49489;SHT31;35382;51.484;11.476;2023-02-26T08:56:44;1.07;76.90
49489;SHT31;35382;51.484;11.476;2023-02-26T08:58:25;1.04;75.79
49489;SHT31;35382;51.484;11.476;2023-02-26T09:00:06;1.24;75.75
49489;SHT31;35382;51.484;11.476;2023-02-26T09:01:51;1.32;74.92
49489;SHT31;35382;51.484;11.476;2023-02-26T09:03:32;2.03;73.68
49489;SHT31;35382;51.484;11.476;2023-02-26T09:05:13;1.93;73.54
49489;SHT31;35382;51.484;11.476;2023-02-26T09:06:54;1.65;74.13
49489;SHT31;35382;51.484;11.476;2023-02-26T09:08:35;1.67;73.36
49489;SHT31;35382;51.484;11.476;2023-02-26T09:10:16;1.70;73.01
49489;SHT31;35382;51.484;11.476;2023-02-26T09:11:57;1.86;73.15
49489;SHT31;35382;51.484;11.476;2023-02-26T09:13:38;2.07;72.87
49489;SHT31;35382;51.484;11.476;2023-02-26T09:15:19;2.26;72.91
49489;SHT31;35382;51.484;11.476;2023-02-26T09:17:02;2.23;72.13
49489;SHT31;35382;51.484;11.476;2023-02-26T09:18:42;2.48;72.59
49489;SHT31;35382;51.484;11.476;2023-02-26T09:20:23;2.07;72.44
49489;SHT31;35382;51.484;11.476;2023-02-26T09:22:04;2.16;72.44
49489;SHT31;35382;51.484;11.476;2023-02-26T09:23:45;2.34;72.94
49489;SHT31;35382;51.484;11.476;2023-02-26T09:25:26;2.21;72.08
49489;SHT31;35382;51.484;11.476;2023-02-26T09:27:08;2.20;71.71
49489;SHT31;35382;51.484;11.476;2023-02-26T09:28:49;2.16;71.20
49489;SHT31;35382;51.484;11.476;2023-02-26T09:30:30;2.10;71.81
49489;SHT31;35382;51.484;11.476;2023-02-26T09:32:11;2.23;71.06
49489;SHT31;35382;51.484;11.476;2023-02-26T09:33:52;2.27;71.67
49489;SHT31;35382;51.484;11.476;2023-02-26T09:35:34;2.33;70.32
49489;SHT31;35382;51.484;11.476;2023-02-26T09:37:14;2.41;70.32
49489;SHT31;35382;51.484;11.476;2023-02-26T09:38:55;2.37;70.01
49489;SHT31;35382;51.484;11.476;2023-02-26T09:40:45;2.21;71.54
49489;SHT31;35382;51.484;11.476;2023-02-26T09:44:33;2.07;70.97
49489;SHT31;35382;51.484;11.476;2023-02-26T09:46:21;2.30;71.15
49489;SHT31;35382;51.484;11.476;2023-02-26T09:48:05;2.30;70.72
49489;SHT31;35382;51.484;11.476;2023-02-26T09:50:01;2.53;70.49
49489;SHT31;35382;51.484;11.476;2023-02-26T09:51:52;3.05;70.19
49489;SHT31;35382;51.484;11.476;2023-02-26T09:53:38;2.87;69.07
49489;SHT31;35382;51.484;11.476;2023-02-26T09:57:41;3.29;68.76
49489;SHT31;35382;51.484;11.476;2023-02-26T09:59:23;3.18;68.13
49489;SHT31;35382;51.484;11.476;2023-02-26T10:01:32;3.08;67.40
49489;SHT31;35382;51.484;11.476;2023-02-26T10:03:50;3.33;67.28
49489;SHT31;35382;51.484;11.476;2023-02-26T10:05:51;3.59;67.62
49489;SHT31;35382;51.484;11.476;2023-02-26T10:07:44;3.67;67.35
49489;SHT31;35382;51.484;11.476;2023-02-26T10:11:32;3.65;67.07
49489;SHT31;35382;51.484;11.476;2023-02-26T10:13:44;4.04;64.76
49489;SHT31;35382;51.484;11.476;2023-02-26T10:15:31;4.61;65.15
49489;SHT31;35382;51.484;11.476;2023-02-26T10:17:27;4.62;65.21
49489;SHT31;35382;51.484;11.476;2023-02-26T10:19:16;4.68;65.39
49489;SHT31;35382;51.484;11.476;2023-02-26T10:21:06;4.10;65.33
49489;SHT31;35382;51.484;11.476;2023-02-26T10:24:57;3.96;66.32
49489;SHT31;35382;51.484;11.476;2023-02-26T10:26:44;3.58;66.03
49489;SHT31;35382;51.484;11.476;2023-02-26T10:30:36;4.13;66.93
49489;SHT31;35382;51.484;11.476;2023-02-26T10:32:27;4.21;66.42
49489;SHT31;35382;51.484;11.476;2023-02-26T10:34:20;4.37;67.36
49489;SHT31;35382;51.484;11.476;2023-02-26T10:36:16;4.74;66.78
49489;SHT31;35382;51.484;11.476;2023-02-26T10:38:01;4.74;65.12
49489;SHT31;35382;51.484;11.476;2023-02-26T10:39:52;4.84;68.32
49489;SHT31;35382;51.484;11.476;2023-02-26T10:41:36;4.74;66.00
49489;SHT31;35382;51.484;11.476;2023-02-26T10:43:34;5.02;66.30
49489;SHT31;35382;51.484;11.476;2023-02-26T10:45:32;4.38;65.25
49489;SHT31;35382;51.484;11.476;2023-02-26T10:47:28;3.90;65.89
49489;SHT31;35382;51.484;11.476;2023-02-26T10:50:16;3.52;67.47
49489;SHT31;35382;51.484;11.476;2023-02-26T10:51:35;3.36;68.48
49489;SHT31;35382;51.484;11.476;2023-02-26T10:53:17;3.51;67.37
49489;SHT31;35382;51.484;11.476;2023-02-26T10:55:25;3.42;67.97
49489;SHT31;35382;51.484;11.476;2023-02-26T10:57:17;3.11;67.91
49489;SHT31;35382;51.484;11.476;2023-02-26T10:59:00;2.97;68.48
49489;SHT31;35382;51.484;11.476;2023-02-26T11:00:43;3.12;68.15
49489;SHT31;35382;51.484;11.476;2023-02-26T11:02:46;3.40;66.68
49489;SHT31;35382;51.484;11.476;2023-02-26T11:04:28;4.33;69.04
49489;SHT31;35382;51.484;11.476;2023-02-26T11:06:12;4.55;66.10
49489;SHT31;35382;51.484;11.476;2023-02-26T11:07:58;4.79;65.74
49489;SHT31;35382;51.484;11.476;2023-02-26T11:09:44;4.60;65.12
49489;SHT31;35382;51.484;11.476;2023-02-26T11:11:54;5.05;65.15
49489;SHT31;35382;51.484;11.476;2023-02-26T11:13:37;5.31;62.79
49489;SHT31;35382;51.484;11.476;2023-02-26T11:15:22;5.11;64.21
49489;SHT31;35382;51.484;11.476;2023-02-26T11:17:17;5.21;64.19
49489;SHT31;35382;51.484;11.476;2023-02-26T11:18:59;4.87;62.55
49489;SHT31;35382;51.484;11.476;2023-02-26T11:20:41;4.62;63.56
49489;SHT31;35382;51.484;11.476;2023-02-26T11:22:27;3.76;64.96
49489;SHT31;35382;51.484;11.476;2023-02-26T11:24:17;3.65;64.91
49489;SHT31;35382;51.484;11.476;2023-02-26T11:26:05;3.31;66.83
49489;SHT31;35382;51.484;11.476;2023-02-26T11:27:48;3.19;68.13
49489;SHT31;35382;51.484;11.476;2023-02-26T11:29:39;2.53;68.09
49489;SHT31;35382;51.484;11.476;2023-02-26T11:31:22;2.29;69.62
49489;SHT31;35382;51.484;11.476;2023-02-26T11:33:15;2.53;69.24